Time;durP1;ratioP1;P1;durP2;ratioP2;P2;SDS_P1;SDS_P2;PMS_P1;PMS_P2;Temp;Humidity;BMP_temperature;BMP_pressure;BME280_temperature;BME280_humidity;BME280_pressure;Samples;Min_cycle;Max_cycle;Signal;HPM_P1;HPM_P2
2024/04/07 00:00:19;;;;;;;5.10;2.40;;;17.90;1.00;;;;;;5018198;28;20191;-44
2024/04/07 00:02:46;;;;;;;2.77;2.00;;;17.80;1.00;;;;;;5018148;28;20206;-45
2024/04/07 00:05:12;;;;;;;2.53;2.10;;;17.80;1.00;;;;;;5018631;28;20919;-45
2024/04/07 00:07:37;;;;;;;4.10;2.10;;;17.70;1.00;;;;;;5018181;28;20434;-44
2024/04/07 00:10:04;;;;;;;2.20;1.83;;;17.70;1.00;;;;;;5018301;28;20613;-43
2024/04/07 00:12:29;;;;;;;2.77;2.00;;;17.70;1.00;;;;;;5018812;28;20278;-43
2024/04/07 00:14:55;;;;;;;2.60;1.80;;;17.60;1.00;;;;;;5017687;28;20741;-43
2024/04/07 00:17:21;;;;;;;2.37;2.00;;;17.50;1.00;;;;;;5016822;28;20574;-44
2024/04/07 00:19:47;;;;;;;2.70;1.67;;;17.60;1.00;;;;;;5017293;28;20461;-43
2024/04/07 00:22:12;;;;;;;2.07;1.57;;;17.60;1.00;;;;;;5017342;28;20556;-44
2024/04/07 00:24:38;;;;;;;2.17;1.83;;;17.60;1.00;;;;;;5017514;28;20585;-44
2024/04/07 00:27:04;;;;;;;2.43;1.77;;;17.60;1.00;;;;;;5017802;28;20570;-44
2024/04/07 00:29:30;;;;;;;4.70;2.10;;;17.60;1.00;;;;;;5017418;28;20273;-43
2024/04/07 00:31:56;;;;;;;2.00;1.60;;;17.50;1.00;;;;;;5017029;28;20190;-43
2024/04/07 00:34:23;;;;;;;3.80;2.03;;;17.50;1.00;;;;;;5016530;28;20410;-44
2024/04/07 00:36:48;;;;;;;2.90;1.50;;;17.50;1.00;;;;;;5017226;28;20418;-43
2024/04/07 00:39:14;;;;;;;1.87;1.60;;;17.40;1.00;;;;;;5017192;28;20441;-46
2024/04/07 00:41:40;;;;;;;2.20;1.57;;;17.50;1.00;;;;;;5017709;28;20211;-45
2024/04/07 00:44:05;;;;;;;2.60;1.50;;;17.40;1.00;;;;;;5017504;28;20211;-46
2024/04/07 00:46:31;;;;;;;2.80;1.73;;;17.40;1.00;;;;;;5016909;28;20202;-44
2024/04/07 00:48:57;;;;;;;4.30;2.40;;;17.40;1.00;;;;;;5017517;28;20742;-42
2024/04/07 00:51:23;;;;;;;2.30;2.10;;;17.40;1.00;;;;;;5016598;28;20218;-45
2024/04/07 00:53:48;;;;;;;2.30;1.70;;;17.40;1.00;;;;;;4999503;28;20261;-45
2024/04/07 00:56:14;;;;;;;3.03;2.10;;;17.40;1.00;;;;;;5000230;28;20879;-45
2024/04/07 00:58:41;;;;;;;2.87;2.23;;;17.50;1.00;;;;;;5017775;28;20221;-44
2024/04/07 01:01:07;;;;;;;2.67;1.87;;;17.60;1.00;;;;;;5017494;28;20187;-44
2024/04/07 01:03:33;;;;;;;2.50;1.80;;;17.50;1.00;;;;;;5017178;28;20826;-44
2024/04/07 01:05:58;;;;;;;2.67;1.90;;;17.50;1.00;;;;;;5016570;28;20237;-46
2024/04/07 01:08:24;;;;;;;2.60;1.70;;;17.60;1.00;;;;;;5018029;28;20191;-45
2024/04/07 01:10:51;;;;;;;2.97;1.67;;;17.70;1.00;;;;;;5017619;28;20238;-42
2024/04/07 01:13:17;;;;;;;2.80;1.87;;;17.70;1.00;;;;;;5017093;28;20183;-44
2024/04/07 01:15:43;;;;;;;2.20;1.90;;;17.60;1.00;;;;;;5015833;28;20584;-44
2024/04/07 01:18:09;;;;;;;2.07;1.73;;;17.50;1.00;;;;;;5017078;28;20426;-44
2024/04/07 01:20:34;;;;;;;3.07;2.10;;;17.50;1.00;;;;;;5016745;28;20588;-43
2024/04/07 01:23:03;;;;;;;1.60;1.50;;;17.50;1.00;;;;;;5017519;28;20496;-43
2024/04/07 01:25:29;;;;;;;7.30;2.07;;;17.50;1.00;;;;;;5017099;28;20235;-47
2024/04/07 01:27:56;;;;;;;2.20;1.83;;;17.50;1.00;;;;;;5015573;28;20502;-44
2024/04/07 01:30:23;;;;;;;2.67;2.00;;;17.50;1.00;;;;;;5015920;28;20309;-43
2024/04/07 01:32:49;;;;;;;2.13;1.40;;;17.50;1.00;;;;;;5015527;28;20434;-44
2024/04/07 01:35:15;;;;;;;1.87;1.70;;;17.60;1.00;;;;;;5016414;28;20678;-45
2024/04/07 01:37:41;;;;;;;3.67;1.77;;;17.50;1.00;;;;;;5016665;28;20521;-43
2024/04/07 01:40:08;;;;;;;2.30;2.00;;;17.50;1.00;;;;;;5016436;28;20517;-43
2024/04/07 01:42:41;;;;;;;4.80;2.07;;;17.40;1.00;;;;;;5016613;28;20290;-44
2024/04/07 01:45:07;;;;;;;3.37;1.50;;;17.30;1.00;;;;;;5016816;28;20481;-45
2024/04/07 01:47:33;;;;;;;3.37;2.20;;;17.20;1.00;;;;;;5016301;28;20445;-43
2024/04/07 01:49:59;;;;;;;2.27;1.97;;;17.10;1.00;;;;;;5016470;28;20840;-44
2024/04/07 01:52:25;;;;;;;3.13;1.60;;;17.00;1.00;;;;;;5015939;28;20429;-44
2024/04/07 01:54:51;;;;;;;1.77;1.67;;;16.90;1.00;;;;;;5016514;28;20576;-45
2024/04/07 01:57:17;;;;;;;2.10;1.90;;;16.90;1.00;;;;;;5018654;28;20183;-45
2024/04/07 01:59:42;;;;;;;3.20;2.07;;;16.90;1.00;;;;;;5020342;28;20552;-45
2024/04/07 02:02:08;;;;;;;3.43;1.90;;;17.00;1.00;;;;;;5020392;28;20440;-45
2024/04/07 02:04:34;;;;;;;2.80;2.07;;;17.10;1.00;;;;;;5020718;28;20223;-45
2024/04/07 02:07:08;;;;;;;2.27;1.80;;;17.20;1.00;;;;;;5020946;28;20493;-44
2024/04/07 02:09:34;;;;;;;2.23;2.00;;;17.40;1.00;;;;;;5019745;28;20310;-43
2024/04/07 02:12:00;;;;;;;5.13;2.10;;;17.60;1.00;;;;;;5020445;28;20437;-45
2024/04/07 02:14:25;;;;;;;2.50;1.73;;;17.70;1.00;;;;;;5020284;28;20596;-43
2024/04/07 02:16:51;;;;;;;2.57;1.57;;;17.80;1.00;;;;;;5018361;28;20187;-46
2024/04/07 02:19:16;;;;;;;3.10;2.10;;;17.80;1.00;;;;;;5018599;28;20191;-46
2024/04/07 02:21:42;;;;;;;2.10;1.90;;;17.90;1.00;;;;;;5019582;28;20179;-46
2024/04/07 02:24:08;;;;;;;1.83;1.40;;;17.90;1.00;;;;;;5020189;28;20451;-45
2024/04/07 02:26:34;;;;;;;3.07;1.63;;;18.00;1.00;;;;;;5002580;28;20195;-45
2024/04/07 02:28:59;;;;;;;2.60;1.63;;;18.00;1.00;;;;;;5019680;28;20565;-44
2024/04/07 02:31:26;;;;;;;3.03;1.90;;;18.00;1.00;;;;;;5003083;28;20217;-45
2024/04/07 02:33:52;;;;;;;2.57;2.13;;;18.00;1.00;;;;;;5020727;28;20190;-44
2024/04/07 02:36:18;;;;;;;2.07;1.83;;;18.00;1.00;;;;;;5019825;28;20430;-42
2024/04/07 02:38:44;;;;;;;2.10;1.90;;;18.00;1.00;;;;;;5019348;28;20470;-43
2024/04/07 02:41:11;;;;;;;2.97;2.40;;;18.10;1.00;;;;;;5019831;28;20198;-45
2024/04/07 02:43:37;;;;;;;2.57;1.97;;;18.10;1.00;;;;;;5003271;28;20559;-43
2024/04/07 02:48:46;;;;;;;3.60;1.90;;;18.10;1.00;;;;;;5019345;28;20565;-43
2024/04/07 02:51:12;;;;;;;3.70;2.00;;;18.10;1.00;;;;;;5019880;28;20488;-44
2024/04/07 02:53:41;;;;;;;4.53;1.67;;;18.10;1.00;;;;;;5020149;28;20282;-44
2024/04/07 02:56:07;;;;;;;2.10;1.90;;;18.00;1.00;;;;;;5019591;28;20399;-44
2024/04/07 02:58:33;;;;;;;2.60;1.87;;;18.00;1.00;;;;;;5018858;28;20521;-44
2024/04/07 03:01:05;;;;;;;2.17;1.53;;;18.00;1.00;;;;;;5019367;28;20418;-43
2024/04/07 03:03:32;;;;;;;2.83;1.90;;;18.00;1.00;;;;;;5019671;28;20182;-43
2024/04/07 03:05:58;;;;;;;2.20;1.47;;;17.90;1.00;;;;;;5019865;28;20485;-42
2024/04/07 03:08:24;;;;;;;3.10;1.90;;;17.80;1.00;;;;;;5018700;28;20461;-44
2024/04/07 03:10:59;;;;;;;2.00;1.70;;;17.80;1.00;;;;;;5018846;28;20536;-43
2024/04/07 03:13:25;;;;;;;2.70;1.80;;;17.80;1.00;;;;;;5018323;28;20425;-45
2024/04/07 03:15:51;;;;;;;3.37;2.10;;;17.80;1.00;;;;;;5019148;28;20421;-43
2024/04/07 03:18:17;;;;;;;1.80;1.53;;;17.80;1.00;;;;;;5019451;28;20430;-45
2024/04/07 03:20:43;;;;;;;3.80;1.97;;;17.80;1.00;;;;;;5019736;28;20441;-43
2024/04/07 03:23:09;;;;;;;3.40;1.90;;;17.80;1.00;;;;;;5019683;28;20836;-45
2024/04/07 03:25:35;;;;;;;2.97;2.23;;;17.90;1.00;;;;;;5001919;28;20238;-46
2024/04/07 03:28:01;;;;;;;1.77;1.67;;;18.00;1.00;;;;;;5019796;28;20487;-47
2024/04/07 03:30:26;;;;;;;3.90;1.90;;;18.10;1.00;;;;;;5019386;28;20399;-43
2024/04/07 03:32:52;;;;;;;1.97;1.77;;;18.10;1.00;;;;;;5001657;28;20259;-45
2024/04/07 03:35:17;;;;;;;3.13;1.90;;;18.00;1.00;;;;;;5018911;28;20191;-46
2024/04/07 03:37:43;;;;;;;2.50;2.00;;;17.90;1.00;;;;;;5018674;28;20250;-45
2024/04/07 03:40:09;;;;;;;2.50;1.83;;;17.90;1.00;;;;;;5018841;28;20278;-44
2024/04/07 03:42:35;;;;;;;2.93;2.00;;;17.80;1.00;;;;;;5019138;28;20210;-42
2024/04/07 03:45:01;;;;;;;3.43;2.07;;;17.70;1.00;;;;;;5019463;28;20478;-43
2024/04/07 03:47:26;;;;;;;4.27;2.23;;;17.60;1.00;;;;;;5018989;28;20183;-42
2024/04/07 03:49:52;;;;;;;3.13;2.00;;;17.50;1.00;;;;;;5018693;28;20431;-42
2024/04/07 03:52:19;;;;;;;2.70;2.00;;;17.40;1.00;;;;;;5017650;28;20187;-43
2024/04/07 03:54:44;;;;;;;5.00;1.80;;;17.30;1.00;;;;;;5017507;28;20285;-43
2024/04/07 03:57:10;;;;;;;2.93;2.33;;;17.20;1.00;;;;;;5016953;28;20828;-42
2024/04/07 03:59:36;;;;;;;2.07;1.70;;;17.10;1.00;;;;;;5017721;28;20206;-42
2024/04/07 04:02:02;;;;;;;4.30;1.83;;;17.00;1.00;;;;;;5017717;28;20183;-42
2024/04/07 04:04:27;;;;;;;3.20;1.80;;;17.00;1.00;;;;;;5018073;28;20234;-43
2024/04/07 04:06:53;;;;;;;3.03;2.17;;;17.00;1.00;;;;;;5018764;28;20191;-42
2024/04/07 04:09:19;;;;;;;2.37;1.80;;;16.90;1.00;;;;;;5018634;28;20199;-43
2024/04/07 04:11:45;;;;;;;2.30;1.90;;;16.90;1.00;;;;;;5018959;28;20183;-43
2024/04/07 04:14:11;;;;;;;2.87;2.10;;;16.80;1.00;;;;;;5000789;28;20569;-43
2024/04/07 04:16:36;;;;;;;3.07;1.90;;;16.80;1.00;;;;;;5017300;28;20422;-42
2024/04/07 04:19:03;;;;;;;5.03;2.07;;;16.70;1.00;;;;;;5018298;28;20187;-43
2024/04/07 04:21:29;;;;;;;2.47;2.17;;;16.70;1.00;;;;;;5018288;28;20191;-42
2024/04/07 04:23:55;;;;;;;3.47;2.10;;;16.70;1.00;;;;;;5018506;28;20473;-43
2024/04/07 04:26:20;;;;;;;3.63;2.10;;;16.70;1.00;;;;;;5017995;28;20938;-42
2024/04/07 04:28:46;;;;;;;3.27;2.07;;;16.70;1.00;;;;;;5017831;28;20176;-42
2024/04/07 04:31:11;;;;;;;2.23;2.03;;;16.70;1.00;;;;;;5018654;28;20292;-45
2024/04/07 04:33:37;;;;;;;3.30;1.97;;;16.70;1.00;;;;;;5017812;28;20323;-44
2024/04/07 04:36:14;;;;;;;2.50;2.13;;;16.70;1.00;;;;;;5017496;28;20506;-43
2024/04/07 04:38:41;;;;;;;2.67;2.00;;;16.70;1.00;;;;;;5018264;28;20190;-43
2024/04/07 04:41:07;;;;;;;1.93;1.73;;;16.80;1.00;;;;;;5018250;28;20813;-43
2024/04/07 04:43:39;;;;;;;3.70;2.00;;;16.80;1.00;;;;;;5017909;28;20471;-42
2024/04/07 04:46:07;;;;;;;2.63;1.60;;;16.80;1.00;;;;;;5001472;28;20237;-45
2024/04/07 04:48:34;;;;;;;2.10;1.90;;;16.70;1.00;;;;;;5017597;28;20454;-42
2024/04/07 04:51:00;;;;;;;3.60;1.93;;;16.70;1.00;;;;;;5000546;28;20434;-44
2024/04/07 04:53:26;;;;;;;3.77;1.90;;;16.70;1.00;;;;;;5000221;28;20560;-42
2024/04/07 04:55:52;;;;;;;2.80;2.10;;;16.70;1.00;;;;;;5017218;28;20454;-43
2024/04/07 04:58:19;;;;;;;1.83;1.63;;;16.60;1.00;;;;;;5017714;28;20441;-42
2024/04/07 05:00:45;;;;;;;3.00;1.90;;;16.60;1.00;;;;;;5017900;28;20217;-43
2024/04/07 05:03:12;;;;;;;2.57;2.20;;;16.50;1.00;;;;;;5018057;28;20438;-44
2024/04/07 05:05:38;;;;;;;3.20;1.90;;;16.60;1.00;;;;;;5017486;28;20484;-42
2024/04/07 05:08:05;;;;;;;4.23;2.40;;;16.60;1.00;;;;;;5018024;28;20501;-42
2024/04/07 05:10:31;;;;;;;2.27;2.03;;;16.60;1.00;;;;;;5017736;28;20469;-44
2024/04/07 05:12:57;;;;;;;2.60;1.93;;;16.60;1.00;;;;;;5018004;28;20434;-43
2024/04/07 05:15:23;;;;;;;3.17;2.47;;;16.60;1.00;;;;;;5017576;28;20908;-42
2024/04/07 05:17:49;;;;;;;3.10;1.60;;;16.60;1.00;;;;;;4997505;28;20457;-42
2024/04/07 05:20:15;;;;;;;3.03;2.00;;;16.60;1.00;;;;;;5015673;28;20714;-43
2024/04/07 05:22:43;;;;;;;2.73;1.67;;;16.60;1.00;;;;;;5015619;28;20238;-45
2024/04/07 05:25:09;;;;;;;3.73;2.10;;;16.60;1.00;;;;;;5016351;28;20481;-42
2024/04/07 05:27:36;;;;;;;2.63;1.80;;;16.60;1.00;;;;;;5015908;28;20460;-42
2024/04/07 05:30:03;;;;;;;4.00;1.87;;;16.60;1.00;;;;;;5015856;28;20440;-43
2024/04/07 05:32:29;;;;;;;3.40;1.83;;;16.60;1.00;;;;;;5021452;28;20418;-43
2024/04/07 05:34:55;;;;;;;3.20;1.90;;;16.60;1.00;;;;;;5023726;28;20417;-42
2024/04/07 05:37:20;;;;;;;2.30;1.60;;;16.60;1.00;;;;;;5023896;28;20749;-42
2024/04/07 05:39:50;;;;;;;3.10;2.03;;;16.60;1.00;;;;;;5024430;28;20228;-42
2024/04/07 05:42:16;;;;;;;8.30;2.03;;;16.70;1.00;;;;;;5023989;28;20191;-42
2024/04/07 05:44:42;;;;;;;3.37;2.33;;;16.60;1.00;;;;;;5024215;28;20517;-42
2024/04/07 05:47:08;;;;;;;5.20;2.13;;;16.60;1.00;;;;;;5023678;28;20426;-44
2024/04/07 05:49:35;;;;;;;2.70;1.93;;;16.60;1.00;;;;;;5006743;28;20473;-42
2024/04/07 05:52:00;;;;;;;2.80;2.20;;;16.50;1.00;;;;;;5023862;28;20449;-43
2024/04/07 05:54:29;;;;;;;3.50;2.23;;;16.40;1.00;;;;;;5006485;28;20434;-42
2024/04/07 05:56:55;;;;;;;2.43;1.90;;;16.50;1.00;;;;;;5024003;28;20199;-43
2024/04/07 05:59:21;;;;;;;2.40;2.20;;;16.40;1.00;;;;;;5024450;28;20422;-43
2024/04/07 06:01:46;;;;;;;2.10;1.70;;;16.40;1.00;;;;;;5022215;28;20753;-45
2024/04/07 06:04:12;;;;;;;2.30;1.87;;;16.40;1.00;;;;;;5022462;28;20545;-44
2024/04/07 06:06:39;;;;;;;3.00;2.33;;;16.40;1.00;;;;;;5023105;28;20491;-43
2024/04/07 06:09:06;;;;;;;2.47;1.93;;;16.30;1.00;;;;;;5023650;28;20191;-42
2024/04/07 06:11:33;;;;;;;3.23;2.57;;;16.30;1.00;;;;;;5023175;28;20511;-42
2024/04/07 06:14:00;;;;;;;5.03;2.20;;;16.30;1.00;;;;;;5023645;28;20425;-42
2024/04/07 06:16:26;;;;;;;3.50;2.50;;;16.40;1.00;;;;;;5024061;28;20426;-41
2024/04/07 06:18:53;;;;;;;2.67;2.20;;;16.40;1.00;;;;;;5022794;28;20426;-43
2024/04/07 06:21:21;;;;;;;3.33;2.20;;;16.40;1.00;;;;;;5023157;28;20529;-42
2024/04/07 06:23:47;;;;;;;2.87;2.10;;;16.50;1.00;;;;;;5006000;28;20748;-42
2024/04/07 06:26:13;;;;;;;4.90;2.37;;;16.60;1.00;;;;;;5023089;28;20564;-44
2024/04/07 06:28:38;;;;;;;3.47;2.10;;;16.70;1.00;;;;;;5023330;28;20452;-42
2024/04/07 06:31:04;;;;;;;4.40;2.70;;;16.80;1.00;;;;;;5023185;28;20426;-45
2024/04/07 06:33:30;;;;;;;3.40;2.63;;;16.90;1.00;;;;;;5023984;28;20286;-45
2024/04/07 06:35:59;;;;;;;2.97;1.97;;;17.00;1.00;;;;;;5024030;28;20315;-43
2024/04/07 06:38:25;;;;;;;4.03;1.90;;;17.00;1.00;;;;;;5023281;28;20234;-44
2024/04/07 06:40:51;;;;;;;3.20;2.10;;;17.00;1.00;;;;;;5021790;28;20519;-46
2024/04/07 06:43:17;;;;;;;2.83;2.43;;;17.00;1.00;;;;;;5020599;28;20442;-42
2024/04/07 06:45:43;;;;;;;2.90;2.50;;;17.00;1.00;;;;;;5018993;28;20568;-41
2024/04/07 06:48:09;;;;;;;3.03;1.90;;;17.10;1.00;;;;;;5018797;28;20441;-42
2024/04/07 06:50:35;;;;;;;3.30;2.53;;;17.10;1.00;;;;;;5017838;28;20198;-43
2024/04/07 06:53:01;;;;;;;2.77;1.83;;;17.30;1.00;;;;;;5018371;28;20190;-43
2024/04/07 06:55:27;;;;;;;3.97;2.03;;;17.40;1.00;;;;;;5018015;28;20224;-41
2024/04/07 06:57:53;;;;;;;3.63;2.90;;;17.60;1.00;;;;;;5019811;28;20499;-43
2024/04/07 07:00:18;;;;;;;3.67;2.80;;;17.70;1.00;;;;;;5019889;28;20426;-43
2024/04/07 07:02:44;;;;;;;4.60;2.50;;;17.90;1.00;;;;;;5018964;28;20434;-42
2024/04/07 07:05:10;;;;;;;4.40;2.90;;;18.10;1.00;;;;;;5019505;28;20294;-41
2024/04/07 07:07:36;;;;;;;6.47;3.20;;;18.30;1.00;;;;;;5019888;28;20207;-42
2024/04/07 07:10:03;;;;;;;2.83;2.37;;;18.40;1.00;;;;;;5018490;28;20219;-43
2024/04/07 07:12:30;;;;;;;3.50;2.33;;;18.60;1.00;;;;;;5000628;28;20461;-46
2024/04/07 07:14:56;;;;;;;4.37;2.70;;;18.60;1.00;;;;;;5018239;28;20526;-44
2024/04/07 07:17:21;;;;;;;3.60;2.77;;;18.60;1.00;;;;;;5017499;28;20497;-46
2024/04/07 07:19:47;;;;;;;3.90;2.70;;;18.70;1.00;;;;;;5018679;28;20186;-43
2024/04/07 07:22:12;;;;;;;3.37;2.60;;;18.80;1.00;;;;;;5018637;28;20497;-46
2024/04/07 07:24:38;;;;;;;2.30;1.87;;;18.80;1.00;;;;;;5017551;28;20450;-47
2024/04/07 07:27:04;;;;;;;3.60;2.30;;;18.90;1.00;;;;;;5017727;28;20443;-45
2024/04/07 07:29:30;;;;;;;2.87;2.20;;;19.10;1.00;;;;;;5018477;28;20601;-44
2024/04/07 07:31:57;;;;;;;3.20;2.30;;;19.20;1.00;;;;;;5017577;28;20509;-44
2024/04/07 07:34:25;;;;;;;2.90;2.20;;;19.40;1.00;;;;;;5017999;28;20185;-44
2024/04/07 07:36:51;;;;;;;5.63;2.33;;;19.50;1.00;;;;;;5017606;28;20868;-43
2024/04/07 07:39:17;;;;;;;5.07;2.20;;;19.70;1.00;;;;;;5018337;28;20425;-46
2024/04/07 07:41:44;;;;;;;4.53;2.43;;;19.80;1.00;;;;;;5018980;28;20422;-43
2024/04/07 07:44:09;;;;;;;5.67;2.63;;;20.00;1.00;;;;;;5019130;28;20515;-44
2024/04/07 07:46:35;;;;;;;7.70;2.10;;;20.20;1.00;;;;;;5001223;28;20805;-46
2024/04/07 07:49:01;;;;;;;4.93;2.10;;;20.40;1.00;;;;;;4998953;28;20195;-45
2024/04/07 07:51:27;;;;;;;3.83;2.57;;;20.70;1.00;;;;;;5018451;28;20513;-45
2024/04/07 07:53:55;;;;;;;2.37;2.00;;;21.10;1.00;;;;;;5017156;28;20214;-44
2024/04/07 07:56:21;;;;;;;5.00;2.60;;;21.30;1.00;;;;;;5016691;28;20437;-46
2024/04/07 07:58:46;;;;;;;5.17;2.40;;;21.50;1.00;;;;;;5000029;28;20724;-44
2024/04/07 08:01:12;;;;;;;10.77;2.60;;;21.70;1.00;;;;;;5017834;28;20509;-44
2024/04/07 08:03:38;;;;;;;4.10;2.30;;;21.80;1.00;;;;;;5018879;28;20462;-44
2024/04/07 08:06:04;;;;;;;8.43;2.97;;;22.10;1.00;;;;;;5018174;28;20215;-45
2024/04/07 08:08:30;;;;;;;4.87;2.30;;;22.30;1.00;;;;;;5017320;28;20367;-43
2024/04/07 08:10:55;;;;;;;4.53;2.90;;;22.60;1.00;;;;;;5017815;28;20227;-46
2024/04/07 08:13:21;;;;;;;7.60;2.50;;;22.60;1.00;;;;;;5017120;28;20441;-44
2024/04/07 08:15:47;;;;;;;5.90;2.87;;;22.50;1.00;;;;;;5017794;28;20566;-45
2024/04/07 08:18:13;;;;;;;5.60;2.60;;;22.40;1.00;;;;;;5017922;28;20537;-44
2024/04/07 08:20:40;;;;;;;5.77;2.97;;;22.40;1.00;;;;;;5017088;28;20214;-47
2024/04/07 08:23:06;;;;;;;7.13;2.33;;;22.60;1.00;;;;;;5017864;28;20434;-45
2024/04/07 08:25:33;;;;;;;6.97;2.80;;;22.70;1.00;;;;;;5018171;28;20485;-44
2024/04/07 08:27:59;;;;;;;6.80;2.60;;;22.70;1.00;;;;;;5001066;28;20190;-43
2024/04/07 08:30:24;;;;;;;4.70;2.70;;;22.80;1.00;;;;;;5018375;28;20430;-44
2024/04/07 08:32:50;;;;;;;7.77;2.43;;;22.80;1.00;;;;;;5017647;28;20898;-43
2024/04/07 08:35:16;;;;;;;5.47;2.30;;;22.90;1.00;;;;;;5015831;28;20183;-44
2024/04/07 08:37:41;;;;;;;4.73;2.60;;;22.80;1.00;;;;;;5015081;28;20265;-44
2024/04/07 08:40:08;;;;;;;8.67;2.23;;;22.60;1.00;;;;;;5015789;28;20273;-44
2024/04/07 08:42:33;;;;;;;4.60;2.23;;;22.60;1.00;;;;;;5016004;28;20187;-43
2024/04/07 08:45:03;;;;;;;6.57;3.00;;;22.60;1.00;;;;;;5017562;28;20489;-45
2024/04/07 08:47:29;;;;;;;6.80;2.80;;;22.70;1.00;;;;;;4999979;28;20186;-43
2024/04/07 08:49:58;;;;;;;4.37;1.93;;;22.60;1.00;;;;;;5016599;28;20422;-46
2024/04/07 08:52:23;;;;;;;9.00;2.90;;;22.70;1.00;;;;;;4999397;28;20962;-44
2024/04/07 08:54:50;;;;;;;8.40;3.23;;;22.50;1.00;;;;;;5017059;28;20426;-44
2024/04/07 08:57:17;;;;;;;6.00;2.57;;;22.60;1.00;;;;;;5017178;28;20580;-44
2024/04/07 08:59:46;;;;;;;7.17;2.57;;;22.70;1.00;;;;;;4999286;28;20453;-45
2024/04/07 09:02:13;;;;;;;5.40;2.37;;;22.80;1.00;;;;;;5016823;28;20417;-44
2024/04/07 09:04:40;;;;;;;10.10;2.20;;;23.10;1.00;;;;;;5017545;28;20461;-45
2024/04/07 09:07:05;;;;;;;6.00;2.90;;;23.50;1.00;;;;;;5016461;28;20438;-46
2024/04/07 09:09:31;;;;;;;5.93;2.20;;;23.90;1.00;;;;;;5016954;28;20481;-45
2024/04/07 09:11:59;;;;;;;8.93;2.33;;;24.30;1.00;;;;;;5017303;28;20298;-44
2024/04/07 09:14:26;;;;;;;4.37;2.20;;;24.60;1.00;;;;;;5017140;28;20419;-44
2024/04/07 09:17:06;;;;;;;3.90;2.17;;;24.80;1.00;;;;;;5016401;28;20414;-45
2024/04/07 09:19:32;;;;;;;5.37;2.30;;;24.90;1.00;;;;;;5017212;28;20529;-45
2024/04/07 09:21:58;;;;;;;5.00;2.17;;;25.00;1.00;;;;;;5016345;28;20426;-44
2024/04/07 09:24:28;;;;;;;4.27;2.00;;;25.10;1.00;;;;;;5016266;28;20741;-44
2024/04/07 09:26:56;;;;;;;9.20;2.60;;;25.20;1.00;;;;;;5016370;28;20179;-46
2024/04/07 09:29:21;;;;;;;6.10;2.20;;;25.10;1.00;;;;;;5016289;28;20670;-46
2024/04/07 09:31:47;;;;;;;6.83;2.30;;;25.00;1.00;;;;;;5016597;28;20538;-44
2024/04/07 09:34:13;;;;;;;5.90;2.40;;;24.90;1.00;;;;;;5016777;28;20452;-45
2024/04/07 09:36:39;;;;;;;8.87;2.57;;;24.70;1.00;;;;;;5016604;28;20202;-44
2024/04/07 09:39:05;;;;;;;4.97;2.70;;;24.60;1.00;;;;;;5017035;28;20431;-44
2024/04/07 09:41:31;;;;;;;4.37;2.20;;;24.30;1.00;;;;;;5016275;28;20437;-45
2024/04/07 09:43:59;;;;;;;3.57;2.00;;;24.20;1.00;;;;;;5015585;28;20480;-45
2024/04/07 09:46:25;;;;;;;5.10;2.10;;;24.10;1.00;;;;;;5016369;28;20473;-43
2024/04/07 09:48:52;;;;;;;5.07;2.40;;;24.20;1.00;;;;;;5015252;28;20863;-45
2024/04/07 09:51:21;;;;;;;8.83;2.57;;;24.30;1.00;;;;;;5000005;28;20426;-46
2024/04/07 09:53:49;;;;;;;4.23;2.30;;;24.50;1.00;;;;;;5016926;28;20422;-44
2024/04/07 09:56:16;;;;;;;4.43;2.17;;;24.70;1.00;;;;;;5016464;28;20501;-47
2024/04/07 09:58:42;;;;;;;3.67;2.63;;;25.00;1.00;;;;;;4999695;28;20418;-46
2024/04/07 10:01:09;;;;;;;4.33;2.30;;;25.40;1.00;;;;;;5014760;28;20521;-43
2024/04/07 10:03:35;;;;;;;6.13;2.47;;;26.00;1.00;;;;;;5015925;28;20852;-46
2024/04/07 10:06:02;;;;;;;5.23;2.07;;;26.40;1.00;;;;;;5012689;28;20519;-45
2024/04/07 10:08:30;;;;;;;5.20;2.13;;;26.70;1.00;;;;;;5014776;28;20895;-48
2024/04/07 10:10:57;;;;;;;4.47;2.30;;;27.10;1.00;;;;;;5015832;28;20496;-46
2024/04/07 10:13:24;;;;;;;4.73;2.37;;;27.30;1.00;;;;;;5015705;28;20418;-44
2024/04/07 10:15:51;;;;;;;4.53;2.50;;;27.50;1.00;;;;;;5015004;28;20818;-45
2024/04/07 10:18:18;;;;;;;6.23;2.30;;;27.80;1.00;;;;;;5016561;28;20476;-44
2024/04/07 10:20:44;;;;;;;5.70;2.20;;;27.90;1.00;;;;;;5017985;28;20429;-44
2024/04/07 10:23:12;;;;;;;6.47;2.90;;;28.00;1.00;;;;;;5018441;28;20410;-47
2024/04/07 10:25:48;;;;;;;4.47;2.67;;;28.10;1.00;;;;;;5001722;28;20888;-45
2024/04/07 10:28:14;;;;;;;5.70;2.63;;;28.30;1.00;;;;;;5019616;28;20396;-44
2024/04/07 10:31:09;;;;;;;4.00;2.10;;;28.50;1.00;;;;;;5019327;28;20449;-45
2024/04/07 10:33:38;;;;;;;5.50;2.37;;;28.60;1.00;;;;;;5000795;28;20502;-44
2024/04/07 10:36:06;;;;;;;5.83;3.03;;;28.90;1.00;;;;;;5000373;28;20426;-45
2024/04/07 10:38:50;;;;;;;5.43;2.60;;;28.40;1.00;;;;;;5018183;28;20533;-45
2024/04/07 10:41:23;;;;;;;5.50;2.43;;;27.80;1.00;;;;;;5018489;28;20420;-45
2024/04/07 10:43:49;;;;;;;4.50;2.70;;;27.90;1.00;;;;;;5001561;28;20426;-44
2024/04/07 10:46:17;;;;;;;7.53;3.13;;;28.30;1.00;;;;;;5001444;28;20474;-44
2024/04/07 10:48:43;;;;;;;6.20;2.97;;;28.60;1.00;;;;;;5019929;28;20795;-46
2024/04/07 10:51:09;;;;;;;6.27;2.33;;;28.60;1.00;;;;;;5019835;28;20591;-43
2024/04/07 10:53:36;;;;;;;7.20;2.60;;;28.60;1.00;;;;;;5001327;28;20442;-44
2024/04/07 10:56:02;;;;;;;7.10;2.80;;;28.60;1.00;;;;;;5019176;28;20863;-45
2024/04/07 10:58:28;;;;;;;5.60;2.37;;;28.40;1.00;;;;;;5018825;28;20584;-46
2024/04/07 11:00:53;;;;;;;4.60;2.50;;;28.10;1.00;;;;;;5018173;28;20525;-45
2024/04/07 11:03:21;;;;;;;8.20;2.70;;;28.00;1.00;;;;;;4999250;28;20211;-49
2024/04/07 11:05:46;;;;;;;5.93;3.03;;;28.00;1.00;;;;;;5018168;28;20215;-44
2024/04/07 11:08:12;;;;;;;7.20;3.07;;;28.30;1.00;;;;;;5017198;28;20406;-45
2024/04/07 11:10:39;;;;;;;5.67;2.20;;;28.90;1.00;;;;;;5000283;28;20235;-43
2024/04/07 11:13:06;;;;;;;7.83;2.60;;;29.10;1.00;;;;;;5017150;28;20584;-44
2024/04/07 11:15:32;;;;;;;6.10;2.23;;;29.20;1.00;;;;;;5017601;28;20836;-43
2024/04/07 11:17:59;;;;;;;4.93;2.70;;;29.40;1.00;;;;;;5018785;28;20433;-46
2024/04/07 11:20:24;;;;;;;6.70;2.87;;;29.90;1.00;;;;;;5017939;28;20426;-44
2024/04/07 11:22:50;;;;;;;5.00;2.87;;;30.40;1.00;;;;;;5017631;28;20459;-44
2024/04/07 11:25:16;;;;;;;6.43;2.93;;;30.90;1.00;;;;;;4999985;28;20577;-44
2024/04/07 11:27:43;;;;;;;9.33;2.60;;;31.30;1.00;;;;;;5018455;28;20266;-44
2024/04/07 11:30:09;;;;;;;8.77;3.03;;;30.90;1.00;;;;;;5014173;28;20405;-45
2024/04/07 11:32:37;;;;;;;7.47;2.77;;;31.00;1.00;;;;;;5017932;28;20412;-45
2024/04/07 11:35:05;;;;;;;6.43;3.20;;;31.10;1.00;;;;;;5000665;28;20416;-45
2024/04/07 11:37:31;;;;;;;4.97;2.80;;;30.70;1.00;;;;;;5000813;28;20743;-45
2024/04/07 11:39:57;;;;;;;5.07;2.53;;;29.90;1.00;;;;;;5018009;28;20481;-45
2024/04/07 11:42:24;;;;;;;8.47;3.37;;;29.80;1.00;;;;;;5018141;28;20495;-44
2024/04/07 11:44:50;;;;;;;7.77;2.83;;;29.80;1.00;;;;;;5017949;28;20605;-45
2024/04/07 11:47:16;;;;;;;8.10;2.50;;;30.00;1.00;;;;;;5017185;28;20420;-46
2024/04/07 11:49:43;;;;;;;9.43;3.10;;;30.40;1.00;;;;;;4998670;28;20471;-44
2024/04/07 11:52:09;;;;;;;5.20;2.70;;;30.60;1.00;;;;;;5017275;28;20248;-44
2024/04/07 11:54:35;;;;;;;6.50;2.80;;;30.70;1.00;;;;;;5017199;28;20418;-46
2024/04/07 11:57:00;;;;;;;7.83;2.60;;;31.00;1.00;;;;;;5017308;28;20408;-44
2024/04/07 11:59:26;;;;;;;8.33;2.87;;;30.70;1.00;;;;;;5015295;28;20223;-46
2024/04/07 12:01:52;;;;;;;10.97;3.50;;;30.30;1.00;;;;;;5014935;28;20257;-46
2024/04/07 12:04:17;;;;;;;7.50;3.20;;;29.80;1.00;;;;;;4999401;28;20211;-45
2024/04/07 12:06:43;;;;;;;8.20;3.43;;;29.10;1.00;;;;;;5016569;28;20261;-44
2024/04/07 12:09:10;;;;;;;10.33;4.67;;;29.00;1.00;;;;;;5017259;28;20178;-45
2024/04/07 12:11:36;;;;;;;9.20;3.17;;;29.10;1.00;;;;;;5017921;28;20191;-44
2024/04/07 12:14:02;;;;;;;5.83;2.57;;;29.20;1.00;;;;;;5017734;28;20388;-45
2024/04/07 12:16:28;;;;;;;7.20;3.07;;;29.40;1.00;;;;;;5016803;28;20663;-47
2024/04/07 12:18:54;;;;;;;6.67;3.40;;;29.30;1.00;;;;;;5016619;28;20420;-47
2024/04/07 12:21:20;;;;;;;9.57;2.50;;;29.20;1.00;;;;;;5017746;28;20303;-47
2024/04/07 12:23:45;;;;;;;9.63;3.60;;;29.30;1.00;;;;;;5015993;28;20788;-46
2024/04/07 12:26:11;;;;;;;8.47;3.27;;;29.60;1.00;;;;;;5017295;28;20536;-46
2024/04/07 12:28:37;;;;;;;7.87;3.53;;;29.40;1.00;;;;;;5016984;28;20455;-44
2024/04/07 12:31:02;;;;;;;10.50;3.47;;;29.20;1.00;;;;;;5015701;28;20184;-44
2024/04/07 12:33:28;;;;;;;10.90;2.80;;;29.20;1.00;;;;;;4998752;28;20461;-50
2024/04/07 12:35:54;;;;;;;9.93;3.10;;;29.70;1.00;;;;;;5016767;28;20435;-44
2024/04/07 12:38:20;;;;;;;12.33;3.20;;;29.80;1.00;;;;;;5017066;28;20190;-46
2024/04/07 12:40:46;;;;;;;10.17;3.70;;;29.60;1.00;;;;;;5017927;28;20190;-45
2024/04/07 12:43:12;;;;;;;9.53;2.77;;;29.10;1.00;;;;;;5016890;28;20219;-45
2024/04/07 12:45:37;;;;;;;11.57;3.03;;;28.60;1.00;;;;;;5015492;28;20591;-45
2024/04/07 12:48:15;;;;;;;8.53;2.80;;;28.30;1.00;;;;;;5016291;28;20191;-44
2024/04/07 12:50:41;;;;;;;10.37;2.90;;;28.10;1.00;;;;;;5017197;28;20190;-54
2024/04/07 12:53:06;;;;;;;8.40;3.13;;;28.00;1.00;;;;;;5017147;28;20422;-46
2024/04/07 12:55:32;;;;;;;5.57;2.43;;;28.00;1.00;;;;;;5017427;28;20274;-45